sensor_id;sensor_type;location;lat;lon;timestamp;P1;durP1;ratioP1;P2;durP2;ratioP2
11761;SDS011;5938;47.098;15.474;2022-08-04T00:02:50;7.50;;;6.80;;
11761;SDS011;5938;47.098;15.474;2022-08-04T00:07:02;4.83;;;4.43;;
11761;SDS011;5938;47.098;15.474;2022-08-04T00:11:13;5.20;;;4.70;;
11761;SDS011;5938;47.098;15.474;2022-08-04T00:15:19;4.53;;;4.00;;
11761;SDS011;5938;47.098;15.474;2022-08-04T00:19:24;5.27;;;4.27;;
11761;SDS011;5938;47.098;15.474;2022-08-04T00:23:31;4.47;;;4.07;;
11761;SDS011;5938;47.098;15.474;2022-08-04T00:27:58;5.23;;;4.77;;
11761;SDS011;5938;47.098;15.474;2022-08-04T00:32:04;5.10;;;4.70;;
11761;SDS011;5938;47.098;15.474;2022-08-04T00:36:09;4.80;;;4.40;;
11761;SDS011;5938;47.098;15.474;2022-08-04T00:40:17;5.80;;;5.30;;
11761;SDS011;5938;47.098;15.474;2022-08-04T00:44:29;5.37;;;4.57;;
11761;SDS011;5938;47.098;15.474;2022-08-04T00:48:51;5.93;;;4.43;;
11761;SDS011;5938;47.098;15.474;2022-08-04T00:53:06;5.83;;;5.33;;
11761;SDS011;5938;47.098;15.474;2022-08-04T00:57:24;4.97;;;4.57;;
11761;SDS011;5938;47.098;15.474;2022-08-04T01:01:43;4.73;;;4.33;;
11761;SDS011;5938;47.098;15.474;2022-08-04T01:06:03;5.77;;;5.23;;
11761;SDS011;5938;47.098;15.474;2022-08-04T01:10:15;4.80;;;4.40;;
11761;SDS011;5938;47.098;15.474;2022-08-04T01:14:28;5.33;;;4.93;;
11761;SDS011;5938;47.098;15.474;2022-08-04T01:18:54;5.27;;;4.77;;
11761;SDS011;5938;47.098;15.474;2022-08-04T01:23:26;5.90;;;5.40;;
11761;SDS011;5938;47.098;15.474;2022-08-04T01:27:52;5.90;;;5.40;;
11761;SDS011;5938;47.098;15.474;2022-08-04T01:32:23;5.53;;;5.13;;
11761;SDS011;5938;47.098;15.474;2022-08-04T01:36:33;5.80;;;4.20;;
11761;SDS011;5938;47.098;15.474;2022-08-04T01:40:37;4.70;;;4.30;;
11761;SDS011;5938;47.098;15.474;2022-08-04T01:44:42;6.27;;;5.67;;
11761;SDS011;5938;47.098;15.474;2022-08-04T01:48:52;4.90;;;4.50;;
11761;SDS011;5938;47.098;15.474;2022-08-04T01:52:55;5.80;;;5.30;;
11761;SDS011;5938;47.098;15.474;2022-08-04T01:56:59;5.20;;;4.77;;
11761;SDS011;5938;47.098;15.474;2022-08-04T02:01:27;5.77;;;4.70;;
11761;SDS011;5938;47.098;15.474;2022-08-04T02:05:32;7.03;;;5.47;;
11761;SDS011;5938;47.098;15.474;2022-08-04T02:10:00;5.30;;;4.80;;
11761;SDS011;5938;47.098;15.474;2022-08-04T02:14:10;5.37;;;4.80;;
11761;SDS011;5938;47.098;15.474;2022-08-04T02:18:38;6.43;;;5.80;;
11761;SDS011;5938;47.098;15.474;2022-08-04T02:22:56;5.90;;;5.40;;
11761;SDS011;5938;47.098;15.474;2022-08-04T02:27:02;6.03;;;5.33;;
11761;SDS011;5938;47.098;15.474;2022-08-04T02:31:12;5.00;;;4.60;;
11761;SDS011;5938;47.098;15.474;2022-08-04T02:35:19;6.00;;;5.40;;
11761;SDS011;5938;47.098;15.474;2022-08-04T02:39:30;6.10;;;5.60;;
11761;SDS011;5938;47.098;15.474;2022-08-04T02:43:50;6.00;;;5.50;;
11761;SDS011;5938;47.098;15.474;2022-08-04T02:47:56;5.23;;;4.83;;
11761;SDS011;5938;47.098;15.474;2022-08-04T02:52:23;5.27;;;4.80;;
11761;SDS011;5938;47.098;15.474;2022-08-04T02:56:29;5.80;;;5.33;;
11761;SDS011;5938;47.098;15.474;2022-08-04T03:00:34;5.60;;;5.17;;
11761;SDS011;5938;47.098;15.474;2022-08-04T03:04:42;5.07;;;4.67;;
11761;SDS011;5938;47.098;15.474;2022-08-04T03:08:59;5.93;;;5.43;;
11761;SDS011;5938;47.098;15.474;2022-08-04T03:13:37;5.70;;;4.87;;
11761;SDS011;5938;47.098;15.474;2022-08-04T03:18:00;6.17;;;5.67;;
11761;SDS011;5938;47.098;15.474;2022-08-04T03:22:31;4.87;;;4.47;;
11761;SDS011;5938;47.098;15.474;2022-08-04T03:27:23;5.67;;;5.17;;
11761;SDS011;5938;47.098;15.474;2022-08-04T03:41:14;6.00;;;5.50;;
11761;SDS011;5938;47.098;15.474;2022-08-04T03:46:08;6.47;;;5.87;;
11761;SDS011;5938;47.098;15.474;2022-08-04T03:50:43;5.53;;;5.13;;
11761;SDS011;5938;47.098;15.474;2022-08-04T04:00:10;5.93;;;5.40;;
11761;SDS011;5938;47.098;15.474;2022-08-04T04:08:55;6.90;;;6.30;;
11761;SDS011;5938;47.098;15.474;2022-08-04T04:13:26;5.60;;;5.10;;
11761;SDS011;5938;47.098;15.474;2022-08-04T04:17:44;6.37;;;5.77;;
11761;SDS011;5938;47.098;15.474;2022-08-04T04:22:07;6.63;;;5.63;;
11761;SDS011;5938;47.098;15.474;2022-08-04T04:26:28;5.60;;;5.10;;
11761;SDS011;5938;47.098;15.474;2022-08-04T04:30:43;5.67;;;5.03;;
11761;SDS011;5938;47.098;15.474;2022-08-04T04:35:03;6.47;;;5.10;;
11761;SDS011;5938;47.098;15.474;2022-08-04T04:39:23;5.73;;;5.23;;
11761;SDS011;5938;47.098;15.474;2022-08-04T04:43:39;6.00;;;5.50;;
11761;SDS011;5938;47.098;15.474;2022-08-04T04:47:59;9.93;;;5.90;;
11761;SDS011;5938;47.098;15.474;2022-08-04T04:52:12;6.47;;;5.87;;
11761;SDS011;5938;47.098;15.474;2022-08-04T04:56:26;5.87;;;5.37;;
11761;SDS011;5938;47.098;15.474;2022-08-04T05:00:38;6.23;;;5.73;;
11761;SDS011;5938;47.098;15.474;2022-08-04T05:05:01;6.03;;;5.10;;
11761;SDS011;5938;47.098;15.474;2022-08-04T05:09:17;5.53;;;5.10;;
11761;SDS011;5938;47.098;15.474;2022-08-04T05:13:34;5.40;;;4.90;;
11761;SDS011;5938;47.098;15.474;2022-08-04T05:18:00;6.03;;;5.10;;
11761;SDS011;5938;47.098;15.474;2022-08-04T05:22:11;5.40;;;5.00;;
11761;SDS011;5938;47.098;15.474;2022-08-04T05:26:22;5.33;;;4.93;;
11761;SDS011;5938;47.098;15.474;2022-08-04T05:30:33;7.20;;;4.97;;
11761;SDS011;5938;47.098;15.474;2022-08-04T05:34:48;5.40;;;4.90;;
11761;SDS011;5938;47.098;15.474;2022-08-04T05:38:58;5.53;;;5.10;;
11761;SDS011;5938;47.098;15.474;2022-08-04T05:43:04;5.43;;;5.03;;
11761;SDS011;5938;47.098;15.474;2022-08-04T05:47:09;5.77;;;5.37;;
11761;SDS011;5938;47.098;15.474;2022-08-04T05:51:14;5.57;;;5.07;;
11761;SDS011;5938;47.098;15.474;2022-08-04T05:55:19;5.23;;;4.70;;
11761;SDS011;5938;47.098;15.474;2022-08-04T05:59:43;5.90;;;5.27;;
11761;SDS011;5938;47.098;15.474;2022-08-04T06:03:47;4.83;;;4.43;;
11761;SDS011;5938;47.098;15.474;2022-08-04T06:07:52;5.57;;;4.83;;
11761;SDS011;5938;47.098;15.474;2022-08-04T06:12:16;5.80;;;5.30;;
11761;SDS011;5938;47.098;15.474;2022-08-04T06:16:22;5.90;;;5.33;;
11761;SDS011;5938;47.098;15.474;2022-08-04T06:20:31;5.10;;;4.60;;
11761;SDS011;5938;47.098;15.474;2022-08-04T06:24:37;4.47;;;4.07;;
11761;SDS011;5938;47.098;15.474;2022-08-04T06:28:44;5.50;;;5.00;;
11761;SDS011;5938;47.098;15.474;2022-08-04T06:32:48;6.93;;;6.23;;
11761;SDS011;5938;47.098;15.474;2022-08-04T06:37:05;5.50;;;5.00;;
11761;SDS011;5938;47.098;15.474;2022-08-04T06:41:10;11.07;;;5.13;;
11761;SDS011;5938;47.098;15.474;2022-08-04T06:45:14;4.77;;;4.40;;
11761;SDS011;5938;47.098;15.474;2022-08-04T06:49:19;4.13;;;3.83;;
11761;SDS011;5938;47.098;15.474;2022-08-04T06:53:24;5.60;;;4.60;;
11761;SDS011;5938;47.098;15.474;2022-08-04T06:57:29;3.70;;;3.40;;
11761;SDS011;5938;47.098;15.474;2022-08-04T07:01:36;7.13;;;3.30;;
11761;SDS011;5938;47.098;15.474;2022-08-04T07:05:41;3.97;;;3.67;;
11761;SDS011;5938;47.098;15.474;2022-08-04T07:09:44;3.97;;;3.63;;
11761;SDS011;5938;47.098;15.474;2022-08-04T07:13:48;3.87;;;3.20;;
11761;SDS011;5938;47.098;15.474;2022-08-04T07:17:54;5.30;;;4.20;;
11761;SDS011;5938;47.098;15.474;2022-08-04T07:22:01;3.17;;;2.90;;
11761;SDS011;5938;47.098;15.474;2022-08-04T07:26:27;4.00;;;3.60;;
11761;SDS011;5938;47.098;15.474;2022-08-04T07:30:32;3.53;;;3.23;;
11761;SDS011;5938;47.098;15.474;2022-08-04T07:34:37;3.83;;;3.43;;
11761;SDS011;5938;47.098;15.474;2022-08-04T07:38:42;3.70;;;3.23;;
11761;SDS011;5938;47.098;15.474;2022-08-04T07:42:51;5.40;;;2.90;;
11761;SDS011;5938;47.098;15.474;2022-08-04T07:46:55;3.23;;;3.00;;
11761;SDS011;5938;47.098;15.474;2022-08-04T07:51:00;3.57;;;3.27;;
11761;SDS011;5938;47.098;15.474;2022-08-04T07:55:08;3.57;;;3.27;;
11761;SDS011;5938;47.098;15.474;2022-08-04T07:59:13;3.80;;;3.40;;
11761;SDS011;5938;47.098;15.474;2022-08-04T08:03:16;3.50;;;3.20;;
11761;SDS011;5938;47.098;15.474;2022-08-04T08:07:23;3.63;;;3.40;;
11761;SDS011;5938;47.098;15.474;2022-08-04T08:11:28;3.67;;;3.37;;
11761;SDS011;5938;47.098;15.474;2022-08-04T08:15:52;3.30;;;3.00;;
11761;SDS011;5938;47.098;15.474;2022-08-04T08:19:56;3.53;;;3.30;;
11761;SDS011;5938;47.098;15.474;2022-08-04T08:24:00;3.63;;;3.33;;
11761;SDS011;5938;47.098;15.474;2022-08-04T08:28:13;3.20;;;3.00;;
11761;SDS011;5938;47.098;15.474;2022-08-04T08:32:18;4.10;;;3.70;;
11761;SDS011;5938;47.098;15.474;2022-08-04T08:36:22;4.13;;;3.53;;
11761;SDS011;5938;47.098;15.474;2022-08-04T08:40:34;3.90;;;3.60;;
11761;SDS011;5938;47.098;15.474;2022-08-04T08:44:51;3.33;;;2.97;;
11761;SDS011;5938;47.098;15.474;2022-08-04T08:49:34;3.20;;;3.00;;
11761;SDS011;5938;47.098;15.474;2022-08-04T08:54:10;3.20;;;2.70;;
11761;SDS011;5938;47.098;15.474;2022-08-04T08:58:50;3.53;;;2.83;;
11761;SDS011;5938;47.098;15.474;2022-08-04T09:12:13;5.13;;;2.53;;
11761;SDS011;5938;47.098;15.474;2022-08-04T09:16:30;3.00;;;2.80;;
11761;SDS011;5938;47.098;15.474;2022-08-04T09:20:43;3.00;;;2.60;;
11761;SDS011;5938;47.098;15.474;2022-08-04T09:24:53;2.77;;;2.57;;
11761;SDS011;5938;47.098;15.474;2022-08-04T09:29:06;3.03;;;2.73;;
11761;SDS011;5938;47.098;15.474;2022-08-04T09:33:21;2.47;;;2.27;;
11761;SDS011;5938;47.098;15.474;2022-08-04T09:37:47;2.80;;;2.63;;
11761;SDS011;5938;47.098;15.474;2022-08-04T09:42:02;2.47;;;2.30;;
11761;SDS011;5938;47.098;15.474;2022-08-04T09:46:18;2.80;;;2.50;;
11761;SDS011;5938;47.098;15.474;2022-08-04T09:50:31;2.67;;;2.47;;
11761;SDS011;5938;47.098;15.474;2022-08-04T09:54:42;2.93;;;2.73;;
11761;SDS011;5938;47.098;15.474;2022-08-04T09:58:53;5.40;;;3.23;;
11761;SDS011;5938;47.098;15.474;2022-08-04T10:03:03;2.30;;;2.20;;
11761;SDS011;5938;47.098;15.474;2022-08-04T10:07:17;2.63;;;2.43;;
11761;SDS011;5938;47.098;15.474;2022-08-04T10:12:10;3.10;;;2.80;;
11761;SDS011;5938;47.098;15.474;2022-08-04T10:16:23;2.90;;;2.70;;
11761;SDS011;5938;47.098;15.474;2022-08-04T10:20:44;2.57;;;2.43;;
11761;SDS011;5938;47.098;15.474;2022-08-04T10:25:03;2.70;;;2.50;;
11761;SDS011;5938;47.098;15.474;2022-08-04T10:29:37;2.70;;;2.57;;
11761;SDS011;5938;47.098;15.474;2022-08-04T10:33:48;3.00;;;2.67;;
11761;SDS011;5938;47.098;15.474;2022-08-04T10:37:58;3.10;;;2.73;;
11761;SDS011;5938;47.098;15.474;2022-08-04T10:42:11;3.43;;;2.60;;
11761;SDS011;5938;47.098;15.474;2022-08-04T10:46:23;2.43;;;2.30;;
11761;SDS011;5938;47.098;15.474;2022-08-04T10:50:31;2.70;;;2.50;;
11761;SDS011;5938;47.098;15.474;2022-08-04T10:54:45;2.50;;;2.40;;
11761;SDS011;5938;47.098;15.474;2022-08-04T10:58:55;4.50;;;3.10;;
11761;SDS011;5938;47.098;15.474;2022-08-04T11:03:04;2.60;;;2.50;;
11761;SDS011;5938;47.098;15.474;2022-08-04T11:07:12;3.00;;;2.80;;
11761;SDS011;5938;47.098;15.474;2022-08-04T11:11:20;2.83;;;2.63;;
11761;SDS011;5938;47.098;15.474;2022-08-04T11:15:29;2.83;;;2.50;;
11761;SDS011;5938;47.098;15.474;2022-08-04T11:19:41;2.60;;;2.50;;
11761;SDS011;5938;47.098;15.474;2022-08-04T11:23:57;3.00;;;2.80;;
11761;SDS011;5938;47.098;15.474;2022-08-04T11:28:08;2.90;;;2.70;;
11761;SDS011;5938;47.098;15.474;2022-08-04T11:32:19;2.67;;;2.47;;
11761;SDS011;5938;47.098;15.474;2022-08-04T11:36:33;2.50;;;2.40;;
11761;SDS011;5938;47.098;15.474;2022-08-04T11:40:42;2.77;;;2.60;;
11761;SDS011;5938;47.098;15.474;2022-08-04T11:45:03;3.03;;;2.63;;
11761;SDS011;5938;47.098;15.474;2022-08-04T11:49:11;3.27;;;3.00;;
11761;SDS011;5938;47.098;15.474;2022-08-04T11:53:24;3.23;;;3.03;;
11761;SDS011;5938;47.098;15.474;2022-08-04T11:57:37;4.00;;;2.80;;
11761;SDS011;5938;47.098;15.474;2022-08-04T12:01:46;2.83;;;2.63;;
11761;SDS011;5938;47.098;15.474;2022-08-04T12:06:08;3.20;;;3.00;;
11761;SDS011;5938;47.098;15.474;2022-08-04T12:10:23;2.97;;;2.67;;
11761;SDS011;5938;47.098;15.474;2022-08-04T12:14:46;2.60;;;2.40;;
11761;SDS011;5938;47.098;15.474;2022-08-04T12:19:00;3.03;;;2.83;;
11761;SDS011;5938;47.098;15.474;2022-08-04T12:23:06;2.97;;;2.77;;
11761;SDS011;5938;47.098;15.474;2022-08-04T12:27:17;2.63;;;2.43;;
11761;SDS011;5938;47.098;15.474;2022-08-04T12:31:34;3.10;;;2.80;;
11761;SDS011;5938;47.098;15.474;2022-08-04T12:35:50;2.23;;;2.13;;
11761;SDS011;5938;47.098;15.474;2022-08-04T12:40:14;2.30;;;2.20;;
11761;SDS011;5938;47.098;15.474;2022-08-04T12:44:31;3.20;;;3.00;;
11761;SDS011;5938;47.098;15.474;2022-08-04T12:48:39;2.77;;;2.60;;
11761;SDS011;5938;47.098;15.474;2022-08-04T12:52:49;2.70;;;2.50;;
11761;SDS011;5938;47.098;15.474;2022-08-04T12:57:06;3.23;;;3.03;;
11761;SDS011;5938;47.098;15.474;2022-08-04T13:01:10;3.07;;;2.30;;
11761;SDS011;5938;47.098;15.474;2022-08-04T13:05:39;3.00;;;2.80;;
11761;SDS011;5938;47.098;15.474;2022-08-04T13:09:43;2.60;;;2.43;;
11761;SDS011;5938;47.098;15.474;2022-08-04T13:13:52;2.90;;;2.70;;
11761;SDS011;5938;47.098;15.474;2022-08-04T13:18:16;3.17;;;2.97;;
11761;SDS011;5938;47.098;15.474;2022-08-04T13:22:23;2.67;;;2.30;;
11761;SDS011;5938;47.098;15.474;2022-08-04T13:26:29;2.90;;;2.70;;
11761;SDS011;5938;47.098;15.474;2022-08-04T13:30:55;3.20;;;2.13;;
11761;SDS011;5938;47.098;15.474;2022-08-04T13:35:02;2.53;;;2.43;;
11761;SDS011;5938;47.098;15.474;2022-08-04T13:39:12;3.10;;;2.90;;
11761;SDS011;5938;47.098;15.474;2022-08-04T13:43:22;2.80;;;2.50;;
11761;SDS011;5938;47.098;15.474;2022-08-04T13:47:49;2.80;;;2.60;;
11761;SDS011;5938;47.098;15.474;2022-08-04T13:52:15;3.20;;;3.00;;
11761;SDS011;5938;47.098;15.474;2022-08-04T13:56:19;3.00;;;2.80;;
11761;SDS011;5938;47.098;15.474;2022-08-04T14:00:25;2.90;;;2.70;;
11761;SDS011;5938;47.098;15.474;2022-08-04T14:04:48;2.63;;;2.43;;
11761;SDS011;5938;47.098;15.474;2022-08-04T14:08:58;3.07;;;2.87;;
11761;SDS011;5938;47.098;15.474;2022-08-04T14:13:03;2.83;;;2.63;;
11761;SDS011;5938;47.098;15.474;2022-08-04T14:17:07;2.97;;;2.77;;
11761;SDS011;5938;47.098;15.474;2022-08-04T14:21:22;2.90;;;2.70;;
11761;SDS011;5938;47.098;15.474;2022-08-04T14:25:27;2.47;;;2.37;;
11761;SDS011;5938;47.098;15.474;2022-08-04T14:29:36;3.10;;;2.73;;
11761;SDS011;5938;47.098;15.474;2022-08-04T14:33:42;3.10;;;2.90;;
11761;SDS011;5938;47.098;15.474;2022-08-04T14:38:07;2.83;;;2.63;;
11761;SDS011;5938;47.098;15.474;2022-08-04T14:42:11;2.83;;;2.63;;
11761;SDS011;5938;47.098;15.474;2022-08-04T14:46:15;2.80;;;2.60;;
11761;SDS011;5938;47.098;15.474;2022-08-04T14:50:19;4.90;;;2.83;;
11761;SDS011;5938;47.098;15.474;2022-08-04T14:54:38;3.53;;;3.33;;
11761;SDS011;5938;47.098;15.474;2022-08-04T14:58:42;3.10;;;2.90;;
11761;SDS011;5938;47.098;15.474;2022-08-04T15:02:45;2.90;;;2.70;;
11761;SDS011;5938;47.098;15.474;2022-08-04T15:06:49;2.60;;;2.40;;
11761;SDS011;5938;47.098;15.474;2022-08-04T15:10:54;2.87;;;2.67;;
11761;SDS011;5938;47.098;15.474;2022-08-04T15:15:00;3.07;;;2.87;;
11761;SDS011;5938;47.098;15.474;2022-08-04T15:19:24;2.90;;;2.70;;
11761;SDS011;5938;47.098;15.474;2022-08-04T15:23:27;2.67;;;2.57;;
11761;SDS011;5938;47.098;15.474;2022-08-04T15:27:41;2.67;;;2.47;;
11761;SDS011;5938;47.098;15.474;2022-08-04T15:31:47;2.37;;;2.20;;
11761;SDS011;5938;47.098;15.474;2022-08-04T15:36:11;2.50;;;2.40;;
11761;SDS011;5938;47.098;15.474;2022-08-04T15:40:17;2.90;;;2.70;;
11761;SDS011;5938;47.098;15.474;2022-08-04T15:49:16;2.97;;;2.77;;
11761;SDS011;5938;47.098;15.474;2022-08-04T15:53:21;3.80;;;3.53;;
11761;SDS011;5938;47.098;15.474;2022-08-04T15:57:57;3.20;;;3.00;;
11761;SDS011;5938;47.098;15.474;2022-08-04T16:06:42;4.00;;;3.70;;
11761;SDS011;5938;47.098;15.474;2022-08-04T16:10:48;3.90;;;3.70;;
11761;SDS011;5938;47.098;15.474;2022-08-04T16:14:56;3.60;;;3.40;;
11761;SDS011;5938;47.098;15.474;2022-08-04T16:19:44;4.07;;;3.80;;
11761;SDS011;5938;47.098;15.474;2022-08-04T16:24:07;3.43;;;3.20;;
11761;SDS011;5938;47.098;15.474;2022-08-04T16:28:35;4.20;;;3.90;;
11761;SDS011;5938;47.098;15.474;2022-08-04T16:32:45;4.13;;;3.80;;
11761;SDS011;5938;47.098;15.474;2022-08-04T16:36:59;5.33;;;4.97;;
11761;SDS011;5938;47.098;15.474;2022-08-04T16:41:03;4.30;;;4.00;;
11761;SDS011;5938;47.098;15.474;2022-08-04T16:45:10;4.63;;;4.23;;
11761;SDS011;5938;47.098;15.474;2022-08-04T16:49:14;3.80;;;3.57;;
11761;SDS011;5938;47.098;15.474;2022-08-04T16:53:21;4.20;;;3.90;;
11761;SDS011;5938;47.098;15.474;2022-08-04T16:57:45;4.47;;;4.10;;
11761;SDS011;5938;47.098;15.474;2022-08-04T17:01:50;4.17;;;3.87;;
11761;SDS011;5938;47.098;15.474;2022-08-04T17:06:05;5.80;;;5.20;;
11761;SDS011;5938;47.098;15.474;2022-08-04T17:10:11;4.30;;;3.90;;
11761;SDS011;5938;47.098;15.474;2022-08-04T17:14:19;4.50;;;4.20;;
11761;SDS011;5938;47.098;15.474;2022-08-04T17:18:24;4.10;;;3.80;;
11761;SDS011;5938;47.098;15.474;2022-08-04T17:22:30;4.80;;;4.40;;
11761;SDS011;5938;47.098;15.474;2022-08-04T17:26:35;4.20;;;3.90;;
11761;SDS011;5938;47.098;15.474;2022-08-04T17:30:42;4.73;;;4.33;;
11761;SDS011;5938;47.098;15.474;2022-08-04T17:34:53;3.90;;;3.60;;
11761;SDS011;5938;47.098;15.474;2022-08-04T17:39:00;5.40;;;4.40;;
11761;SDS011;5938;47.098;15.474;2022-08-04T17:43:18;4.80;;;4.40;;
11761;SDS011;5938;47.098;15.474;2022-08-04T17:47:48;4.70;;;4.30;;
11761;SDS011;5938;47.098;15.474;2022-08-04T17:51:52;5.00;;;4.60;;
11761;SDS011;5938;47.098;15.474;2022-08-04T18:00:38;6.97;;;6.27;;
11761;SDS011;5938;47.098;15.474;2022-08-04T18:04:48;6.70;;;6.17;;
11761;SDS011;5938;47.098;15.474;2022-08-04T18:09:11;5.13;;;4.63;;
11761;SDS011;5938;47.098;15.474;2022-08-04T18:13:34;5.23;;;4.73;;
11761;SDS011;5938;47.098;15.474;2022-08-04T18:18:15;5.27;;;4.87;;
11761;SDS011;5938;47.098;15.474;2022-08-04T18:22:24;5.20;;;4.43;;
11761;SDS011;5938;47.098;15.474;2022-08-04T18:26:29;6.10;;;4.70;;
11761;SDS011;5938;47.098;15.474;2022-08-04T18:30:34;10.20;;;4.37;;
11761;SDS011;5938;47.098;15.474;2022-08-04T18:34:57;6.60;;;5.00;;
11761;SDS011;5938;47.098;15.474;2022-08-04T18:39:07;4.30;;;4.00;;
11761;SDS011;5938;47.098;15.474;2022-08-04T18:43:31;4.97;;;4.50;;
11761;SDS011;5938;47.098;15.474;2022-08-04T18:47:41;4.43;;;4.13;;
11761;SDS011;5938;47.098;15.474;2022-08-04T18:52:01;4.70;;;4.30;;
11761;SDS011;5938;47.098;15.474;2022-08-04T18:56:05;5.03;;;4.67;;
11761;SDS011;5938;47.098;15.474;2022-08-04T19:00:28;5.03;;;4.60;;
11761;SDS011;5938;47.098;15.474;2022-08-04T19:04:32;5.63;;;5.13;;
11761;SDS011;5938;47.098;15.474;2022-08-04T19:08:39;6.20;;;5.60;;
11761;SDS011;5938;47.098;15.474;2022-08-04T19:12:45;5.67;;;5.27;;
11761;SDS011;5938;47.098;15.474;2022-08-04T19:16:49;5.67;;;5.10;;
11761;SDS011;5938;47.098;15.474;2022-08-04T19:20:53;4.87;;;4.57;;
11761;SDS011;5938;47.098;15.474;2022-08-04T19:24:59;4.97;;;4.57;;
11761;SDS011;5938;47.098;15.474;2022-08-04T19:29:02;5.20;;;4.80;;
11761;SDS011;5938;47.098;15.474;2022-08-04T19:33:08;5.23;;;4.73;;
11761;SDS011;5938;47.098;15.474;2022-08-04T19:37:12;5.73;;;5.33;;
11761;SDS011;5938;47.098;15.474;2022-08-04T19:41:38;6.97;;;6.33;;
11761;SDS011;5938;47.098;15.474;2022-08-04T19:46:02;5.40;;;5.00;;
11761;SDS011;5938;47.098;15.474;2022-08-04T19:50:07;6.17;;;5.57;;
11761;SDS011;5938;47.098;15.474;2022-08-04T19:54:12;6.30;;;5.70;;
11761;SDS011;5938;47.098;15.474;2022-08-04T19:58:29;5.97;;;5.50;;
11761;SDS011;5938;47.098;15.474;2022-08-04T20:02:33;5.50;;;5.10;;
11761;SDS011;5938;47.098;15.474;2022-08-04T20:06:38;6.37;;;5.87;;
11761;SDS011;5938;47.098;15.474;2022-08-04T20:10:41;6.80;;;5.90;;
11761;SDS011;5938;47.098;15.474;2022-08-04T20:15:07;6.30;;;5.80;;
11761;SDS011;5938;47.098;15.474;2022-08-04T20:19:15;7.03;;;6.17;;
11761;SDS011;5938;47.098;15.474;2022-08-04T20:23:19;6.87;;;6.27;;
11761;SDS011;5938;47.098;15.474;2022-08-04T20:27:42;6.97;;;6.20;;
11761;SDS011;5938;47.098;15.474;2022-08-04T20:32:02;8.63;;;6.53;;
11761;SDS011;5938;47.098;15.474;2022-08-04T20:36:09;6.00;;;5.50;;
11761;SDS011;5938;47.098;15.474;2022-08-04T20:40:14;6.50;;;6.00;;
11761;SDS011;5938;47.098;15.474;2022-08-04T20:44:19;6.73;;;5.97;;
11761;SDS011;5938;47.098;15.474;2022-08-04T20:48:27;6.43;;;5.67;;
11761;SDS011;5938;47.098;15.474;2022-08-04T20:52:34;6.23;;;5.30;;
11761;SDS011;5938;47.098;15.474;2022-08-04T20:56:38;5.87;;;5.37;;
11761;SDS011;5938;47.098;15.474;2022-08-04T21:00:51;5.90;;;5.40;;
11761;SDS011;5938;47.098;15.474;2022-08-04T21:04:56;6.37;;;5.80;;
11761;SDS011;5938;47.098;15.474;2022-08-04T21:09:00;5.93;;;5.43;;
11761;SDS011;5938;47.098;15.474;2022-08-04T21:13:15;6.90;;;6.37;;
11761;SDS011;5938;47.098;15.474;2022-08-04T21:17:19;6.37;;;5.77;;
11761;SDS011;5938;47.098;15.474;2022-08-04T21:21:44;6.37;;;5.90;;
11761;SDS011;5938;47.098;15.474;2022-08-04T21:25:54;6.60;;;6.10;;
11761;SDS011;5938;47.098;15.474;2022-08-04T21:29:58;7.23;;;6.63;;
11761;SDS011;5938;47.098;15.474;2022-08-04T21:34:05;6.97;;;6.47;;
11761;SDS011;5938;47.098;15.474;2022-08-04T21:38:10;7.80;;;7.00;;
11761;SDS011;5938;47.098;15.474;2022-08-04T21:42:17;6.33;;;5.83;;
11761;SDS011;5938;47.098;15.474;2022-08-04T21:46:30;5.93;;;5.53;;
11761;SDS011;5938;47.098;15.474;2022-08-04T21:50:42;6.50;;;6.00;;
11761;SDS011;5938;47.098;15.474;2022-08-04T21:54:52;6.27;;;5.70;;
11761;SDS011;5938;47.098;15.474;2022-08-04T21:58:55;6.33;;;5.83;;
11761;SDS011;5938;47.098;15.474;2022-08-04T22:02:59;6.83;;;6.33;;
11761;SDS011;5938;47.098;15.474;2022-08-04T22:07:03;6.80;;;6.00;;
11761;SDS011;5938;47.098;15.474;2022-08-04T22:11:21;8.37;;;7.57;;
11761;SDS011;5938;47.098;15.474;2022-08-04T22:15:44;6.50;;;6.00;;
11761;SDS011;5938;47.098;15.474;2022-08-04T22:20:05;6.33;;;5.83;;
11761;SDS011;5938;47.098;15.474;2022-08-04T22:24:28;6.90;;;6.33;;
11761;SDS011;5938;47.098;15.474;2022-08-04T22:28:34;6.67;;;6.10;;
11761;SDS011;5938;47.098;15.474;2022-08-04T22:32:38;7.30;;;6.50;;
11761;SDS011;5938;47.098;15.474;2022-08-04T22:36:42;6.53;;;6.13;;
11761;SDS011;5938;47.098;15.474;2022-08-04T22:40:46;6.47;;;5.87;;
11761;SDS011;5938;47.098;15.474;2022-08-04T22:44:52;7.70;;;7.10;;
11761;SDS011;5938;47.098;15.474;2022-08-04T22:48:55;6.90;;;6.13;;
11761;SDS011;5938;47.098;15.474;2022-08-04T22:52:59;7.73;;;6.47;;
11761;SDS011;5938;47.098;15.474;2022-08-04T22:57:02;7.13;;;6.63;;
11761;SDS011;5938;47.098;15.474;2022-08-04T23:01:10;6.73;;;6.23;;
11761;SDS011;5938;47.098;15.474;2022-08-04T23:05:15;6.73;;;5.87;;
11761;SDS011;5938;47.098;15.474;2022-08-04T23:09:19;6.93;;;6.43;;
11761;SDS011;5938;47.098;15.474;2022-08-04T23:13:42;7.20;;;6.60;;
11761;SDS011;5938;47.098;15.474;2022-08-04T23:17:48;7.70;;;6.40;;
11761;SDS011;5938;47.098;15.474;2022-08-04T23:21:53;7.83;;;7.13;;
11761;SDS011;5938;47.098;15.474;2022-08-04T23:26:08;7.10;;;6.60;;
11761;SDS011;5938;47.098;15.474;2022-08-04T23:30:13;8.20;;;6.43;;
11761;SDS011;5938;47.098;15.474;2022-08-04T23:34:19;6.10;;;5.70;;
11761;SDS011;5938;47.098;15.474;2022-08-04T23:38:22;6.37;;;5.87;;
11761;SDS011;5938;47.098;15.474;2022-08-04T23:42:32;6.50;;;6.00;;
11761;SDS011;5938;47.098;15.474;2022-08-04T23:46:35;8.00;;;7.30;;
11761;SDS011;5938;47.098;15.474;2022-08-04T23:50:40;7.50;;;6.90;;
11761;SDS011;5938;47.098;15.474;2022-08-04T23:54:44;6.90;;;6.30;;
11761;SDS011;5938;47.098;15.474;2022-08-04T23:58:50;7.17;;;6.47;;
